sensor_id;sensor_type;location;lat;lon;timestamp;P1;durP1;ratioP1;P2;durP2;ratioP2
75285;SDS011;63879;46.064;14.532;2023-10-13T07:01:29;7.07;;;5.97;;
75285;SDS011;63879;46.064;14.532;2023-10-13T07:03:54;8.43;;;6.13;;
75285;SDS011;63879;46.064;14.532;2023-10-13T07:06:26;8.40;;;6.18;;
75285;SDS011;63879;46.064;14.532;2023-10-13T07:08:52;7.70;;;6.07;;
75285;SDS011;63879;46.064;14.532;2023-10-13T07:11:18;8.47;;;7.63;;
75285;SDS011;63879;46.064;14.532;2023-10-13T07:14:01;11.75;;;7.95;;
75285;SDS011;63879;46.064;14.532;2023-10-13T07:17:00;8.23;;;6.65;;
75285;SDS011;63879;46.064;14.532;2023-10-13T07:19:27;8.18;;;5.85;;
75285;SDS011;63879;46.064;14.532;2023-10-13T07:22:02;10.55;;;6.72;;
75285;SDS011;63879;46.064;14.532;2023-10-13T07:24:47;8.27;;;6.75;;
75285;SDS011;63879;46.064;14.532;2023-10-13T07:27:23;8.15;;;6.32;;
75285;SDS011;63879;46.064;14.532;2023-10-13T07:29:49;10.93;;;7.05;;
75285;SDS011;63879;46.064;14.532;2023-10-13T07:32:38;7.32;;;6.50;;
75285;SDS011;63879;46.064;14.532;2023-10-13T07:35:10;9.73;;;7.20;;
75285;SDS011;63879;46.064;14.532;2023-10-13T07:37:41;6.88;;;5.97;;
75285;SDS011;63879;46.064;14.532;2023-10-13T07:40:07;10.20;;;9.07;;
75285;SDS011;63879;46.064;14.532;2023-10-13T07:42:53;9.95;;;6.70;;
75285;SDS011;63879;46.064;14.532;2023-10-13T07:45:38;8.77;;;7.55;;
75285;SDS011;63879;46.064;14.532;2023-10-13T07:48:06;7.50;;;6.57;;
75285;SDS011;63879;46.064;14.532;2023-10-13T07:50:44;8.07;;;7.28;;
75285;SDS011;63879;46.064;14.532;2023-10-13T07:53:10;9.13;;;7.40;;
75285;SDS011;63879;46.064;14.532;2023-10-13T07:55:48;8.88;;;4.72;;
75285;SDS011;63879;46.064;14.532;2023-10-13T07:58:20;9.02;;;6.55;;
75285;SDS011;63879;46.064;14.532;2023-10-13T08:00:49;9.70;;;7.65;;
75285;SDS011;63879;46.064;14.532;2023-10-13T08:03:20;9.80;;;6.03;;
75285;SDS011;63879;46.064;14.532;2023-10-13T08:06:05;10.23;;;4.85;;
75285;SDS011;63879;46.064;14.532;2023-10-13T08:08:37;7.97;;;6.88;;
75285;SDS011;63879;46.064;14.532;2023-10-13T08:11:04;9.82;;;7.07;;
75285;SDS011;63879;46.064;14.532;2023-10-13T08:13:40;7.15;;;6.22;;
75285;SDS011;63879;46.064;14.532;2023-10-13T08:16:14;13.88;;;6.00;;
75285;SDS011;63879;46.064;14.532;2023-10-13T08:18:48;8.52;;;7.72;;
75285;SDS011;63879;46.064;14.532;2023-10-13T08:21:14;9.07;;;5.95;;
75285;SDS011;63879;46.064;14.532;2023-10-13T08:23:48;9.05;;;6.65;;
75285;SDS011;63879;46.064;14.532;2023-10-13T08:26:24;7.80;;;6.85;;
75285;SDS011;63879;46.064;14.532;2023-10-13T08:28:58;9.68;;;6.38;;
75285;SDS011;63879;46.064;14.532;2023-10-13T08:31:44;12.63;;;7.40;;
75285;SDS011;63879;46.064;14.532;2023-10-13T08:34:32;10.32;;;9.32;;
75285;SDS011;63879;46.064;14.532;2023-10-13T08:37:14;13.43;;;8.38;;
75285;SDS011;63879;46.064;14.532;2023-10-13T08:39:48;11.65;;;7.55;;
75285;SDS011;63879;46.064;14.532;2023-10-13T08:42:44;8.32;;;6.60;;
75285;SDS011;63879;46.064;14.532;2023-10-13T08:45:13;11.52;;;6.43;;
75285;SDS011;63879;46.064;14.532;2023-10-13T08:48:06;8.50;;;6.47;;
75285;SDS011;63879;46.064;14.532;2023-10-13T08:50:45;8.65;;;4.57;;
75285;SDS011;63879;46.064;14.532;2023-10-13T08:53:16;10.20;;;7.88;;
75285;SDS011;63879;46.064;14.532;2023-10-13T08:56:20;10.10;;;7.38;;
75285;SDS011;63879;46.064;14.532;2023-10-13T08:59:12;11.55;;;6.03;;
75285;SDS011;63879;46.064;14.532;2023-10-13T09:01:47;12.35;;;7.30;;
75285;SDS011;63879;46.064;14.532;2023-10-13T09:04:24;12.07;;;5.47;;
75285;SDS011;63879;46.064;14.532;2023-10-13T09:07:05;14.20;;;9.57;;
75285;SDS011;63879;46.064;14.532;2023-10-13T09:09:31;10.43;;;7.22;;
75285;SDS011;63879;46.064;14.532;2023-10-13T09:14:40;10.98;;;6.00;;
75285;SDS011;63879;46.064;14.532;2023-10-13T09:17:11;16.13;;;8.98;;
75285;SDS011;63879;46.064;14.532;2023-10-13T09:19:55;12.63;;;8.43;;
75285;SDS011;63879;46.064;14.532;2023-10-13T09:25:01;11.50;;;7.00;;
75285;SDS011;63879;46.064;14.532;2023-10-13T09:27:28;12.95;;;6.68;;
75285;SDS011;63879;46.064;14.532;2023-10-13T09:30:00;15.75;;;10.32;;
75285;SDS011;63879;46.064;14.532;2023-10-13T09:33:02;13.98;;;6.75;;
75285;SDS011;63879;46.064;14.532;2023-10-13T09:35:34;12.70;;;6.88;;
75285;SDS011;63879;46.064;14.532;2023-10-13T09:38:02;14.00;;;6.65;;
75285;SDS011;63879;46.064;14.532;2023-10-13T09:40:28;13.65;;;6.68;;
75285;SDS011;63879;46.064;14.532;2023-10-13T09:42:57;12.30;;;7.28;;
75285;SDS011;63879;46.064;14.532;2023-10-13T09:45:28;13.18;;;7.32;;
75285;SDS011;63879;46.064;14.532;2023-10-13T09:48:05;14.30;;;7.25;;
75285;SDS011;63879;46.064;14.532;2023-10-13T09:50:47;14.63;;;8.48;;
75285;SDS011;63879;46.064;14.532;2023-10-13T09:53:14;12.90;;;6.85;;
75285;SDS011;63879;46.064;14.532;2023-10-13T09:55:58;15.32;;;6.78;;
75285;SDS011;63879;46.064;14.532;2023-10-13T09:58:36;13.77;;;7.38;;
75285;SDS011;63879;46.064;14.532;2023-10-13T10:01:02;13.15;;;7.22;;
75285;SDS011;63879;46.064;14.532;2023-10-13T10:03:47;13.00;;;6.97;;
75285;SDS011;63879;46.064;14.532;2023-10-13T10:06:57;14.27;;;8.02;;
75285;SDS011;63879;46.064;14.532;2023-10-13T10:09:28;14.07;;;8.55;;
75285;SDS011;63879;46.064;14.532;2023-10-13T10:18:01;16.10;;;8.38;;
75285;SDS011;63879;46.064;14.532;2023-10-13T10:20:34;13.02;;;8.82;;
75285;SDS011;63879;46.064;14.532;2023-10-13T10:23:07;17.98;;;7.85;;
75285;SDS011;63879;46.064;14.532;2023-10-13T10:25:38;16.75;;;9.65;;
75285;SDS011;63879;46.064;14.532;2023-10-13T10:28:04;14.20;;;8.05;;
75285;SDS011;63879;46.064;14.532;2023-10-13T10:30:32;14.15;;;8.55;;
75285;SDS011;63879;46.064;14.532;2023-10-13T10:33:07;15.68;;;8.32;;
75285;SDS011;63879;46.064;14.532;2023-10-13T10:35:44;13.88;;;9.05;;
75285;SDS011;63879;46.064;14.532;2023-10-13T10:38:12;16.85;;;8.82;;
75285;SDS011;63879;46.064;14.532;2023-10-13T10:41:01;17.27;;;9.65;;
75285;SDS011;63879;46.064;14.532;2023-10-13T10:43:30;18.48;;;10.57;;
75285;SDS011;63879;46.064;14.532;2023-10-13T10:46:13;13.45;;;9.00;;
75285;SDS011;63879;46.064;14.532;2023-10-13T10:48:43;15.18;;;9.25;;
75285;SDS011;63879;46.064;14.532;2023-10-13T10:51:09;18.48;;;8.52;;
75285;SDS011;63879;46.064;14.532;2023-10-13T10:53:41;14.50;;;9.05;;
75285;SDS011;63879;46.064;14.532;2023-10-13T10:56:12;15.32;;;9.13;;
75285;SDS011;63879;46.064;14.532;2023-10-13T10:58:45;17.02;;;8.23;;
75285;SDS011;63879;46.064;14.532;2023-10-13T11:01:13;12.77;;;7.90;;
75285;SDS011;63879;46.064;14.532;2023-10-13T11:03:55;14.88;;;8.50;;
75285;SDS011;63879;46.064;14.532;2023-10-13T11:06:36;14.32;;;6.78;;
75285;SDS011;63879;46.064;14.532;2023-10-13T11:09:07;12.30;;;7.28;;
75285;SDS011;63879;46.064;14.532;2023-10-13T11:11:51;11.82;;;7.60;;
75285;SDS011;63879;46.064;14.532;2023-10-13T11:14:24;12.57;;;8.30;;
75285;SDS011;63879;46.064;14.532;2023-10-13T11:16:51;15.57;;;7.40;;
75285;SDS011;63879;46.064;14.532;2023-10-13T11:19:42;14.88;;;7.82;;
75285;SDS011;63879;46.064;14.532;2023-10-13T11:22:11;16.60;;;6.72;;
75285;SDS011;63879;46.064;14.532;2023-10-13T11:24:54;11.90;;;7.10;;
75285;SDS011;63879;46.064;14.532;2023-10-13T11:27:28;11.30;;;6.57;;
75285;SDS011;63879;46.064;14.532;2023-10-13T11:30:15;10.50;;;6.15;;
75285;SDS011;63879;46.064;14.532;2023-10-13T11:32:45;14.65;;;7.13;;
75285;SDS011;63879;46.064;14.532;2023-10-13T11:35:12;14.32;;;8.02;;
75285;SDS011;63879;46.064;14.532;2023-10-13T11:37:46;11.50;;;6.85;;
75285;SDS011;63879;46.064;14.532;2023-10-13T11:40:20;12.82;;;6.38;;
75285;SDS011;63879;46.064;14.532;2023-10-13T11:43:06;12.30;;;7.43;;
75285;SDS011;63879;46.064;14.532;2023-10-13T11:45:39;14.30;;;7.25;;
75285;SDS011;63879;46.064;14.532;2023-10-13T11:48:19;11.05;;;6.72;;
75285;SDS011;63879;46.064;14.532;2023-10-13T11:50:59;12.75;;;7.03;;
75285;SDS011;63879;46.064;14.532;2023-10-13T11:53:25;18.23;;;8.45;;
75285;SDS011;63879;46.064;14.532;2023-10-13T11:55:52;13.75;;;7.43;;
75285;SDS011;63879;46.064;14.532;2023-10-13T11:58:18;14.70;;;8.40;;
75285;SDS011;63879;46.064;14.532;2023-10-13T12:00:43;12.05;;;7.90;;
75285;SDS011;63879;46.064;14.532;2023-10-13T12:03:46;11.20;;;7.22;;
75285;SDS011;63879;46.064;14.532;2023-10-13T12:06:32;11.05;;;6.38;;
75285;SDS011;63879;46.064;14.532;2023-10-13T12:09:20;11.45;;;6.72;;
75285;SDS011;63879;46.064;14.532;2023-10-13T12:11:46;11.93;;;6.07;;
75285;SDS011;63879;46.064;14.532;2023-10-13T12:14:13;13.45;;;6.65;;
75285;SDS011;63879;46.064;14.532;2023-10-13T12:16:43;11.63;;;7.07;;
75285;SDS011;63879;46.064;14.532;2023-10-13T12:19:13;12.88;;;8.07;;
75285;SDS011;63879;46.064;14.532;2023-10-13T12:21:41;17.15;;;7.75;;
75285;SDS011;63879;46.064;14.532;2023-10-13T12:24:08;13.77;;;7.03;;
75285;SDS011;63879;46.064;14.532;2023-10-13T12:26:46;12.98;;;7.50;;
75285;SDS011;63879;46.064;14.532;2023-10-13T12:29:12;13.07;;;6.55;;
75285;SDS011;63879;46.064;14.532;2023-10-13T12:31:47;13.27;;;6.30;;
75285;SDS011;63879;46.064;14.532;2023-10-13T12:34:26;15.00;;;7.38;;
75285;SDS011;63879;46.064;14.532;2023-10-13T12:37:11;12.48;;;6.72;;
75285;SDS011;63879;46.064;14.532;2023-10-13T12:39:57;14.10;;;6.97;;
75285;SDS011;63879;46.064;14.532;2023-10-13T12:42:41;12.52;;;6.72;;
75285;SDS011;63879;46.064;14.532;2023-10-13T12:45:30;20.63;;;6.82;;
75285;SDS011;63879;46.064;14.532;2023-10-13T12:48:13;14.32;;;7.25;;
75285;SDS011;63879;46.064;14.532;2023-10-13T12:51:00;14.30;;;6.90;;
75285;SDS011;63879;46.064;14.532;2023-10-13T12:53:45;12.02;;;6.63;;
75285;SDS011;63879;46.064;14.532;2023-10-13T12:56:13;11.38;;;7.25;;
75285;SDS011;63879;46.064;14.532;2023-10-13T12:58:38;14.23;;;7.15;;
75285;SDS011;63879;46.064;14.532;2023-10-13T13:01:04;16.87;;;8.03;;
75285;SDS011;63879;46.064;14.532;2023-10-13T13:03:31;16.90;;;7.85;;
75285;SDS011;63879;46.064;14.532;2023-10-13T13:05:58;13.50;;;7.70;;
75285;SDS011;63879;46.064;14.532;2023-10-13T13:08:23;12.15;;;7.15;;
75285;SDS011;63879;46.064;14.532;2023-10-13T13:10:49;15.77;;;8.68;;
75285;SDS011;63879;46.064;14.532;2023-10-13T13:13:15;19.90;;;8.88;;
75285;SDS011;63879;46.064;14.532;2023-10-13T13:15:42;16.33;;;7.93;;
75285;SDS011;63879;46.064;14.532;2023-10-13T13:18:13;13.63;;;7.65;;
75285;SDS011;63879;46.064;14.532;2023-10-13T13:20:40;15.27;;;9.40;;
75285;SDS011;63879;46.064;14.532;2023-10-13T13:23:09;16.15;;;7.38;;
75285;SDS011;63879;46.064;14.532;2023-10-13T13:25:37;18.02;;;7.53;;
75285;SDS011;63879;46.064;14.532;2023-10-13T13:28:07;13.82;;;7.60;;
75285;SDS011;63879;46.064;14.532;2023-10-13T13:30:35;12.32;;;7.72;;
75285;SDS011;63879;46.064;14.532;2023-10-13T13:33:02;15.30;;;8.27;;
75285;SDS011;63879;46.064;14.532;2023-10-13T13:35:38;16.25;;;7.90;;
75285;SDS011;63879;46.064;14.532;2023-10-13T13:38:04;23.88;;;9.32;;
75285;SDS011;63879;46.064;14.532;2023-10-13T13:40:41;21.33;;;8.38;;
75285;SDS011;63879;46.064;14.532;2023-10-13T13:43:09;18.33;;;7.40;;
75285;SDS011;63879;46.064;14.532;2023-10-13T13:45:44;15.30;;;7.57;;
75285;SDS011;63879;46.064;14.532;2023-10-13T13:48:10;20.42;;;8.05;;
75285;SDS011;63879;46.064;14.532;2023-10-13T13:50:40;17.13;;;8.68;;
75285;SDS011;63879;46.064;14.532;2023-10-13T13:53:06;17.92;;;8.02;;
75285;SDS011;63879;46.064;14.532;2023-10-13T13:55:35;19.05;;;8.30;;
75285;SDS011;63879;46.064;14.532;2023-10-13T13:58:00;16.17;;;7.78;;
75285;SDS011;63879;46.064;14.532;2023-10-13T14:00:26;16.95;;;8.02;;
75285;SDS011;63879;46.064;14.532;2023-10-13T14:03:07;19.20;;;8.48;;
75285;SDS011;63879;46.064;14.532;2023-10-13T14:05:59;17.40;;;7.90;;
75285;SDS011;63879;46.064;14.532;2023-10-13T14:08:25;18.50;;;11.18;;
75285;SDS011;63879;46.064;14.532;2023-10-13T14:10:52;16.95;;;11.38;;
75285;SDS011;63879;46.064;14.532;2023-10-13T14:13:37;15.45;;;11.95;;
75285;SDS011;63879;46.064;14.532;2023-10-13T14:18:45;20.88;;;11.20;;
75285;SDS011;63879;46.064;14.532;2023-10-13T14:21:11;16.45;;;7.53;;
75285;SDS011;63879;46.064;14.532;2023-10-13T14:23:42;16.42;;;10.35;;
75285;SDS011;63879;46.064;14.532;2023-10-13T14:26:11;18.63;;;11.50;;
75285;SDS011;63879;46.064;14.532;2023-10-13T14:28:50;17.50;;;11.65;;
75285;SDS011;63879;46.064;14.532;2023-10-13T14:31:35;18.50;;;10.52;;
75285;SDS011;63879;46.064;14.532;2023-10-13T14:34:07;24.17;;;9.73;;
75285;SDS011;63879;46.064;14.532;2023-10-13T14:36:33;17.85;;;9.73;;
75285;SDS011;63879;46.064;14.532;2023-10-13T14:39:10;19.17;;;9.27;;
75285;SDS011;63879;46.064;14.532;2023-10-13T14:41:35;22.27;;;10.52;;
75285;SDS011;63879;46.064;14.532;2023-10-13T14:44:02;20.58;;;10.55;;
75285;SDS011;63879;46.064;14.532;2023-10-13T14:46:32;21.85;;;13.48;;
75285;SDS011;63879;46.064;14.532;2023-10-13T14:49:01;18.70;;;10.60;;
75285;SDS011;63879;46.064;14.532;2023-10-13T14:51:27;17.98;;;10.20;;
75285;SDS011;63879;46.064;14.532;2023-10-13T14:53:53;23.48;;;10.70;;
75285;SDS011;63879;46.064;14.532;2023-10-13T14:58:50;19.33;;;9.43;;
75285;SDS011;63879;46.064;14.532;2023-10-13T15:01:16;19.92;;;10.73;;
75285;SDS011;63879;46.064;14.532;2023-10-13T15:03:46;18.55;;;13.02;;
75285;SDS011;63879;46.064;14.532;2023-10-13T15:06:25;21.73;;;12.75;;
75285;SDS011;63879;46.064;14.532;2023-10-13T15:08:58;21.55;;;13.38;;
75285;SDS011;63879;46.064;14.532;2023-10-13T15:11:25;20.30;;;10.23;;
75285;SDS011;63879;46.064;14.532;2023-10-13T15:14:03;22.83;;;13.65;;
75285;SDS011;63879;46.064;14.532;2023-10-13T15:16:31;22.38;;;12.05;;
75285;SDS011;63879;46.064;14.532;2023-10-13T15:18:58;21.33;;;13.70;;
75285;SDS011;63879;46.064;14.532;2023-10-13T15:21:25;21.33;;;14.05;;
75285;SDS011;63879;46.064;14.532;2023-10-13T15:23:55;22.98;;;12.57;;
75285;SDS011;63879;46.064;14.532;2023-10-13T15:26:24;21.48;;;12.27;;
75285;SDS011;63879;46.064;14.532;2023-10-13T15:28:50;21.02;;;14.50;;
75285;SDS011;63879;46.064;14.532;2023-10-13T15:31:20;17.67;;;9.48;;
75285;SDS011;63879;46.064;14.532;2023-10-13T15:33:58;24.17;;;11.38;;
75285;SDS011;63879;46.064;14.532;2023-10-13T15:36:26;23.20;;;13.25;;
75285;SDS011;63879;46.064;14.532;2023-10-13T15:38:56;21.45;;;13.07;;
75285;SDS011;63879;46.064;14.532;2023-10-13T15:41:22;20.57;;;12.63;;
75285;SDS011;63879;46.064;14.532;2023-10-13T15:43:48;22.73;;;13.93;;
75285;SDS011;63879;46.064;14.532;2023-10-13T15:46:18;22.20;;;13.45;;
75285;SDS011;63879;46.064;14.532;2023-10-13T15:48:48;21.45;;;11.68;;
75285;SDS011;63879;46.064;14.532;2023-10-13T15:51:14;21.63;;;11.82;;
75285;SDS011;63879;46.064;14.532;2023-10-13T15:53:40;21.63;;;13.38;;
75285;SDS011;63879;46.064;14.532;2023-10-13T15:56:05;21.83;;;14.07;;
75285;SDS011;63879;46.064;14.532;2023-10-13T15:58:37;20.02;;;12.52;;
75285;SDS011;63879;46.064;14.532;2023-10-13T16:01:03;23.02;;;13.73;;
75285;SDS011;63879;46.064;14.532;2023-10-13T16:03:29;18.13;;;11.18;;
75285;SDS011;63879;46.064;14.532;2023-10-13T16:05:54;20.02;;;12.27;;
75285;SDS011;63879;46.064;14.532;2023-10-13T16:08:20;26.90;;;11.10;;
75285;SDS011;63879;46.064;14.532;2023-10-13T16:10:46;24.02;;;15.50;;
75285;SDS011;63879;46.064;14.532;2023-10-13T16:13:11;25.88;;;17.05;;
75285;SDS011;63879;46.064;14.532;2023-10-13T16:15:45;20.05;;;13.38;;
75285;SDS011;63879;46.064;14.532;2023-10-13T16:18:12;21.27;;;14.50;;
75285;SDS011;63879;46.064;14.532;2023-10-13T16:20:37;23.48;;;12.90;;
75285;SDS011;63879;46.064;14.532;2023-10-13T16:23:03;23.27;;;15.68;;
75285;SDS011;63879;46.064;14.532;2023-10-13T16:25:30;24.33;;;15.23;;
75285;SDS011;63879;46.064;14.532;2023-10-13T16:27:55;27.13;;;11.60;;
75285;SDS011;63879;46.064;14.532;2023-10-13T16:30:21;23.83;;;15.37;;
75285;SDS011;63879;46.064;14.532;2023-10-13T16:32:46;23.10;;;13.38;;
75285;SDS011;63879;46.064;14.532;2023-10-13T16:35:13;20.80;;;12.35;;
75285;SDS011;63879;46.064;14.532;2023-10-13T16:37:41;28.50;;;15.52;;
75285;SDS011;63879;46.064;14.532;2023-10-13T16:40:07;21.67;;;12.88;;
75285;SDS011;63879;46.064;14.532;2023-10-13T16:42:33;25.25;;;14.63;;
75285;SDS011;63879;46.064;14.532;2023-10-13T16:44:59;25.48;;;14.52;;
75285;SDS011;63879;46.064;14.532;2023-10-13T16:47:42;25.15;;;11.05;;
75285;SDS011;63879;46.064;14.532;2023-10-13T16:50:12;31.92;;;17.73;;
75285;SDS011;63879;46.064;14.532;2023-10-13T16:52:39;21.38;;;14.30;;
75285;SDS011;63879;46.064;14.532;2023-10-13T16:55:08;29.35;;;13.55;;
75285;SDS011;63879;46.064;14.532;2023-10-13T16:57:34;24.60;;;15.05;;
75285;SDS011;63879;46.064;14.532;2023-10-13T16:59:59;20.17;;;15.10;;
75285;SDS011;63879;46.064;14.532;2023-10-13T17:02:28;23.58;;;12.38;;
75285;SDS011;63879;46.064;14.532;2023-10-13T17:04:54;24.83;;;12.77;;
75285;SDS011;63879;46.064;14.532;2023-10-13T17:07:22;25.55;;;13.25;;
75285;SDS011;63879;46.064;14.532;2023-10-13T17:09:47;22.55;;;14.27;;
75285;SDS011;63879;46.064;14.532;2023-10-13T17:12:13;21.10;;;12.77;;
75285;SDS011;63879;46.064;14.532;2023-10-13T17:14:38;23.13;;;13.37;;
75285;SDS011;63879;46.064;14.532;2023-10-13T17:17:10;26.73;;;11.52;;
75285;SDS011;63879;46.064;14.532;2023-10-13T17:19:36;28.52;;;12.20;;
75285;SDS011;63879;46.064;14.532;2023-10-13T17:22:01;19.38;;;11.88;;
75285;SDS011;63879;46.064;14.532;2023-10-13T17:27:00;23.20;;;13.68;;
75285;SDS011;63879;46.064;14.532;2023-10-13T17:29:29;22.73;;;14.48;;
75285;SDS011;63879;46.064;14.532;2023-10-13T17:31:55;17.80;;;13.40;;
75285;SDS011;63879;46.064;14.532;2023-10-13T17:34:20;17.42;;;12.43;;
75285;SDS011;63879;46.064;14.532;2023-10-13T17:36:51;21.83;;;12.57;;
75285;SDS011;63879;46.064;14.532;2023-10-13T17:39:17;20.63;;;11.48;;
75285;SDS011;63879;46.064;14.532;2023-10-13T17:41:43;20.58;;;14.55;;
75285;SDS011;63879;46.064;14.532;2023-10-13T17:44:10;25.90;;;16.48;;
75285;SDS011;63879;46.064;14.532;2023-10-13T17:46:40;20.77;;;12.65;;
75285;SDS011;63879;46.064;14.532;2023-10-13T17:49:08;22.95;;;13.73;;
75285;SDS011;63879;46.064;14.532;2023-10-13T17:51:34;21.38;;;13.68;;
75285;SDS011;63879;46.064;14.532;2023-10-13T17:53:59;23.95;;;13.93;;
75285;SDS011;63879;46.064;14.532;2023-10-13T17:56:25;25.35;;;12.48;;
75285;SDS011;63879;46.064;14.532;2023-10-13T17:58:50;18.70;;;12.05;;
75285;SDS011;63879;46.064;14.532;2023-10-13T18:01:18;22.63;;;12.77;;
75285;SDS011;63879;46.064;14.532;2023-10-13T18:03:51;22.95;;;13.55;;
75285;SDS011;63879;46.064;14.532;2023-10-13T18:06:21;24.95;;;14.52;;
75285;SDS011;63879;46.064;14.532;2023-10-13T18:08:50;25.65;;;14.02;;
75285;SDS011;63879;46.064;14.532;2023-10-13T18:11:16;19.58;;;13.05;;
75285;SDS011;63879;46.064;14.532;2023-10-13T18:13:43;23.38;;;12.90;;
75285;SDS011;63879;46.064;14.532;2023-10-13T18:16:28;24.00;;;12.20;;
75285;SDS011;63879;46.064;14.532;2023-10-13T18:18:55;19.58;;;12.77;;
75285;SDS011;63879;46.064;14.532;2023-10-13T18:21:21;23.08;;;13.23;;
75285;SDS011;63879;46.064;14.532;2023-10-13T18:23:47;24.65;;;14.57;;
75285;SDS011;63879;46.064;14.532;2023-10-13T18:26:13;21.08;;;12.40;;
75285;SDS011;63879;46.064;14.532;2023-10-13T18:28:40;20.13;;;13.18;;
75285;SDS011;63879;46.064;14.532;2023-10-13T18:31:07;25.75;;;13.38;;
75285;SDS011;63879;46.064;14.532;2023-10-13T18:33:36;24.15;;;14.65;;
75285;SDS011;63879;46.064;14.532;2023-10-13T18:36:12;19.05;;;11.45;;
75285;SDS011;63879;46.064;14.532;2023-10-13T18:38:38;18.27;;;12.18;;
75285;SDS011;63879;46.064;14.532;2023-10-13T18:41:04;21.98;;;13.63;;
75285;SDS011;63879;46.064;14.532;2023-10-13T18:43:29;24.40;;;13.27;;
75285;SDS011;63879;46.064;14.532;2023-10-13T18:45:59;21.60;;;12.88;;
75285;SDS011;63879;46.064;14.532;2023-10-13T18:48:25;16.33;;;11.23;;
75285;SDS011;63879;46.064;14.532;2023-10-13T18:50:50;19.73;;;9.57;;
75285;SDS011;63879;46.064;14.532;2023-10-13T18:53:19;19.85;;;14.38;;
75285;SDS011;63879;46.064;14.532;2023-10-13T18:55:55;20.58;;;12.00;;
75285;SDS011;63879;46.064;14.532;2023-10-13T18:58:20;23.35;;;12.35;;
75285;SDS011;63879;46.064;14.532;2023-10-13T19:00:45;20.45;;;12.55;;
75285;SDS011;63879;46.064;14.532;2023-10-13T19:03:11;18.70;;;10.53;;
75285;SDS011;63879;46.064;14.532;2023-10-13T19:05:41;19.75;;;12.43;;
75285;SDS011;63879;46.064;14.532;2023-10-13T19:08:09;20.13;;;11.55;;
75285;SDS011;63879;46.064;14.532;2023-10-13T19:10:35;20.27;;;12.23;;
75285;SDS011;63879;46.064;14.532;2023-10-13T19:13:01;23.70;;;13.95;;
75285;SDS011;63879;46.064;14.532;2023-10-13T19:18:14;23.92;;;12.00;;
75285;SDS011;63879;46.064;14.532;2023-10-13T19:20:39;22.97;;;14.10;;
75285;SDS011;63879;46.064;14.532;2023-10-13T19:23:05;20.90;;;12.05;;
75285;SDS011;63879;46.064;14.532;2023-10-13T19:25:49;20.52;;;13.32;;
75285;SDS011;63879;46.064;14.532;2023-10-13T19:28:16;21.23;;;11.40;;
75285;SDS011;63879;46.064;14.532;2023-10-13T19:30:41;24.10;;;12.83;;
75285;SDS011;63879;46.064;14.532;2023-10-13T19:33:07;20.20;;;12.57;;
75285;SDS011;63879;46.064;14.532;2023-10-13T19:35:37;18.95;;;11.80;;
75285;SDS011;63879;46.064;14.532;2023-10-13T19:38:05;24.65;;;14.50;;
75285;SDS011;63879;46.064;14.532;2023-10-13T19:40:34;18.35;;;10.70;;
75285;SDS011;63879;46.064;14.532;2023-10-13T19:42:59;22.20;;;13.00;;
75285;SDS011;63879;46.064;14.532;2023-10-13T19:45:25;17.88;;;10.43;;
75285;SDS011;63879;46.064;14.532;2023-10-13T19:47:51;25.80;;;13.82;;
75285;SDS011;63879;46.064;14.532;2023-10-13T19:50:16;21.65;;;12.57;;
75285;SDS011;63879;46.064;14.532;2023-10-13T19:52:44;24.85;;;13.18;;
75285;SDS011;63879;46.064;14.532;2023-10-13T19:55:20;21.02;;;12.80;;
75285;SDS011;63879;46.064;14.532;2023-10-13T19:57:45;22.05;;;12.00;;
75285;SDS011;63879;46.064;14.532;2023-10-13T20:00:11;19.90;;;12.03;;
75285;SDS011;63879;46.064;14.532;2023-10-13T20:02:47;20.90;;;12.70;;
75285;SDS011;63879;46.064;14.532;2023-10-13T20:08:03;20.73;;;11.57;;
75285;SDS011;63879;46.064;14.532;2023-10-13T20:10:31;19.60;;;10.23;;
75285;SDS011;63879;46.064;14.532;2023-10-13T20:13:03;17.98;;;13.18;;
75285;SDS011;63879;46.064;14.532;2023-10-13T20:15:39;22.05;;;13.52;;
75285;SDS011;63879;46.064;14.532;2023-10-13T20:18:06;19.65;;;12.85;;
75285;SDS011;63879;46.064;14.532;2023-10-13T20:20:36;23.67;;;11.68;;
75285;SDS011;63879;46.064;14.532;2023-10-13T20:23:07;16.67;;;10.93;;
75285;SDS011;63879;46.064;14.532;2023-10-13T20:25:47;18.90;;;12.20;;
75285;SDS011;63879;46.064;14.532;2023-10-13T20:28:16;20.65;;;11.98;;
75285;SDS011;63879;46.064;14.532;2023-10-13T20:30:42;18.42;;;13.13;;
75285;SDS011;63879;46.064;14.532;2023-10-13T20:33:08;20.85;;;11.93;;
75285;SDS011;63879;46.064;14.532;2023-10-13T20:35:45;18.65;;;11.50;;
75285;SDS011;63879;46.064;14.532;2023-10-13T20:38:11;17.60;;;11.52;;
75285;SDS011;63879;46.064;14.532;2023-10-13T20:40:36;23.67;;;13.27;;
75285;SDS011;63879;46.064;14.532;2023-10-13T20:43:01;17.60;;;10.17;;
75285;SDS011;63879;46.064;14.532;2023-10-13T20:45:34;18.42;;;12.27;;
75285;SDS011;63879;46.064;14.532;2023-10-13T20:48:00;16.65;;;12.18;;
75285;SDS011;63879;46.064;14.532;2023-10-13T20:50:25;28.85;;;13.15;;
75285;SDS011;63879;46.064;14.532;2023-10-13T20:52:51;21.05;;;12.48;;
75285;SDS011;63879;46.064;14.532;2023-10-13T20:55:30;21.33;;;13.35;;
75285;SDS011;63879;46.064;14.532;2023-10-13T20:58:02;16.83;;;11.45;;
75285;SDS011;63879;46.064;14.532;2023-10-13T21:00:28;16.75;;;10.73;;
75285;SDS011;63879;46.064;14.532;2023-10-13T21:02:55;21.00;;;11.93;;
75285;SDS011;63879;46.064;14.532;2023-10-13T21:05:21;20.30;;;12.82;;
75285;SDS011;63879;46.064;14.532;2023-10-13T21:07:48;19.05;;;10.27;;
75285;SDS011;63879;46.064;14.532;2023-10-13T21:10:14;20.33;;;12.45;;
75285;SDS011;63879;46.064;14.532;2023-10-13T21:12:40;18.70;;;9.80;;
75285;SDS011;63879;46.064;14.532;2023-10-13T21:15:07;17.45;;;11.25;;
75285;SDS011;63879;46.064;14.532;2023-10-13T21:17:45;20.10;;;11.88;;
75285;SDS011;63879;46.064;14.532;2023-10-13T21:20:11;17.20;;;11.43;;
75285;SDS011;63879;46.064;14.532;2023-10-13T21:22:47;19.77;;;10.73;;
75285;SDS011;63879;46.064;14.532;2023-10-13T21:25:17;15.75;;;11.43;;
75285;SDS011;63879;46.064;14.532;2023-10-13T21:27:54;17.02;;;11.02;;
75285;SDS011;63879;46.064;14.532;2023-10-13T21:32:46;19.63;;;12.23;;
75285;SDS011;63879;46.064;14.532;2023-10-13T21:35:17;18.67;;;10.32;;
75285;SDS011;63879;46.064;14.532;2023-10-13T21:37:44;16.23;;;9.23;;
75285;SDS011;63879;46.064;14.532;2023-10-13T21:40:10;23.77;;;12.73;;
75285;SDS011;63879;46.064;14.532;2023-10-13T21:42:42;15.90;;;12.77;;
75285;SDS011;63879;46.064;14.532;2023-10-13T21:45:08;19.88;;;11.32;;
75285;SDS011;63879;46.064;14.532;2023-10-13T21:47:35;16.00;;;9.68;;
75285;SDS011;63879;46.064;14.532;2023-10-13T21:50:00;19.98;;;12.20;;
75285;SDS011;63879;46.064;14.532;2023-10-13T21:52:29;23.50;;;11.60;;
75285;SDS011;63879;46.064;14.532;2023-10-13T21:54:56;16.90;;;8.90;;
75285;SDS011;63879;46.064;14.532;2023-10-13T21:57:26;19.55;;;12.35;;
75285;SDS011;63879;46.064;14.532;2023-10-13T21:59:52;16.98;;;11.85;;
